Time;durP1;ratioP1;P1;durP2;ratioP2;P2;SDS_P1;SDS_P2;PMS_P1;PMS_P2;Temp;Humidity;BMP_temperature;BMP_pressure;BME280_temperature;BME280_humidity;BME280_pressure;Samples;Min_cycle;Max_cycle;Signal;HPM_P1;HPM_P2
2021/01/02 00:00:13;;;;;;;139.43;43.77;;;;;;;-1.34;100.00;98713.63;2026527;29;20323;-76
2021/01/02 00:01:16;;;;;;;135.38;44.33;;;;;;;-1.45;100.00;98694.28;2026427;29;20230;-76
2021/01/02 00:02:27;;;;;;;139.70;43.90;;;;;;;-1.50;100.00;98694.97;2026275;29;20232;-74
2021/01/02 00:03:38;;;;;;;124.85;42.15;;;;;;;-1.37;100.00;98714.91;2026589;29;20224;-76
2021/01/02 00:05:03;;;;;;;135.95;43.47;;;;;;;-1.34;100.00;98716.25;2025861;29;20730;-75
2021/01/02 00:06:08;;;;;;;116.57;41.42;;;;;;;-1.51;100.00;98695.19;2021443;29;20315;-75
2021/01/02 00:07:42;;;;;;;139.32;44.58;;;;;;;-1.25;100.00;98727.97;2018346;29;20315;-74
2021/01/02 00:08:47;;;;;;;120.10;41.13;;;;;;;-1.44;100.00;98699.28;2017917;29;20219;-74
2021/01/02 00:09:51;;;;;;;130.00;44.40;;;;;;;-1.26;100.00;98729.00;2033441;29;20231;-74
2021/01/02 00:11:03;;;;;;;120.85;43.80;;;;;;;-1.25;100.00;98723.53;2026673;29;20264;-74
2021/01/02 00:12:19;;;;;;;144.35;45.05;;;;;;;-1.29;100.00;98724.22;2026551;29;20227;-75
2021/01/02 00:13:29;;;;;;;116.78;41.92;;;;;;;-1.26;100.00;98721.94;2019983;29;20316;-74
2021/01/02 00:14:42;;;;;;;120.53;43.88;;;;;;;-1.20;100.00;98730.72;2019228;29;20225;-74
2021/01/02 00:15:54;;;;;;;133.57;42.10;;;;;;;-1.19;100.00;98730.47;2019326;29;20337;-74
2021/01/02 00:17:03;;;;;;;138.20;43.17;;;;;;;-1.24;100.00;98730.34;2025973;29;20227;-74
2021/01/02 00:18:14;;;;;;;193.25;42.22;;;;;;;-1.31;100.00;98721.81;2026162;29;20311;-75
2021/01/02 00:19:22;;;;;;;222.88;43.03;;;;;;;-1.31;100.00;98721.81;2026010;29;20306;-74
2021/01/02 00:20:43;;;;;;;354.73;46.42;;;;;;;-1.39;100.00;98721.34;2026357;29;20234;-74
2021/01/02 00:21:50;;;;;;;300.00;47.60;;;;;;;-1.40;100.00;98731.03;2010050;29;20281;-74
2021/01/02 00:22:53;;;;;;;177.77;44.10;;;;;;;-1.44;100.00;98724.66;2025170;29;20231;-74
2021/01/02 00:24:11;;;;;;;207.65;44.33;;;;;;;-1.42;100.00;98727.84;2033559;29;20721;-75
2021/01/02 00:25:14;;;;;;;156.52;42.42;;;;;;;-1.36;100.00;98732.19;2025741;29;20231;-72
2021/01/02 00:26:18;;;;;;;158.93;44.13;;;;;;;-1.42;100.00;98733.88;2026328;29;20224;-74
2021/01/02 00:27:26;;;;;;;149.52;41.28;;;;;;;-1.33;100.00;98733.53;2026114;29;20279;-74
2021/01/02 00:28:29;;;;;;;136.77;43.40;;;;;;;-1.30;100.00;98740.97;2018797;29;20304;-74
2021/01/02 00:30:03;;;;;;;154.55;44.15;;;;;;;-1.39;100.00;98721.34;2026043;29;20235;-74
2021/01/02 00:31:22;;;;;;;139.10;43.13;;;;;;;-1.32;100.00;98735.13;2033300;29;20223;-76
2021/01/02 00:32:33;;;;;;;166.50;46.33;;;;;;;-1.42;100.00;98733.06;2030525;29;20239;-74
2021/01/02 00:33:53;;;;;;;251.43;50.72;;;;;;;-1.40;100.00;98736.25;2026778;29;20748;-73
2021/01/02 00:35:06;;;;;;;170.82;44.13;;;;;;;-1.43;100.00;98734.91;2033226;29;20697;-73
2021/01/02 00:36:11;;;;;;;153.48;42.28;;;;;;;-1.42;100.00;98725.22;2025459;29;20231;-74
2021/01/02 00:37:22;;;;;;;280.45;47.25;;;;;;;-1.41;100.00;98726.81;2026178;29;20243;-77
2021/01/02 00:38:23;;;;;;;137.65;43.28;;;;;;;-1.51;100.00;98716.91;2025476;29;20227;-74
2021/01/02 00:39:31;;;;;;;139.23;41.92;;;;;;;-1.37;100.00;98737.66;2018644;29;20297;-74
2021/01/02 00:40:35;;;;;;;151.15;44.33;;;;;;;-1.41;100.00;98729.44;2026254;29;20712;-74
2021/01/02 00:41:37;;;;;;;169.80;44.78;;;;;;;-1.44;100.00;98729.91;2026403;29;20240;-75
2021/01/02 00:42:40;;;;;;;139.32;44.40;;;;;;;-1.44;100.00;98728.06;2025409;29;20232;-75
2021/01/02 00:43:45;;;;;;;180.25;45.83;;;;;;;-1.43;100.00;98732.28;2018480;29;20237;-75
2021/01/02 00:44:47;;;;;;;145.43;44.85;;;;;;;-1.40;100.00;98728.41;2019036;29;20244;-75
2021/01/02 00:45:48;;;;;;;130.30;45.65;;;;;;;-1.35;100.00;98733.78;2026012;29;20228;-75
2021/01/02 00:46:49;;;;;;;139.13;46.03;;;;;;;-1.43;100.00;98728.88;2026162;29;20232;-74
2021/01/02 00:47:51;;;;;;;158.33;47.93;;;;;;;-1.35;100.00;98725.91;2026119;29;20243;-74
2021/01/02 00:48:53;;;;;;;145.38;46.03;;;;;;;-1.22;100.00;98745.81;2026110;29;20938;-75
2021/01/02 00:49:56;;;;;;;165.57;47.03;;;;;;;-1.26;100.00;98726.38;2025748;29;20708;-74
2021/01/02 00:51:00;;;;;;;194.82;48.95;;;;;;;-1.16;100.00;98743.09;2018481;29;20315;-74
2021/01/02 00:52:11;;;;;;;203.95;48.63;;;;;;;-1.20;100.00;98730.72;2025641;29;20714;-75
2021/01/02 00:53:35;;;;;;;158.60;47.05;;;;;;;-1.23;100.00;98742.41;2031430;29;20403;-74
2021/01/02 00:54:49;;;;;;;139.48;46.58;;;;;;;-1.27;100.00;98743.13;2024222;29;20554;-74
2021/01/02 00:56:06;;;;;;;141.90;45.65;;;;;;;-1.20;100.00;98741.19;2018485;29;20225;-75
2021/01/02 00:57:17;;;;;;;159.00;46.67;;;;;;;-1.19;100.00;98748.81;2026004;29;20239;-75
2021/01/02 00:58:28;;;;;;;176.38;46.95;;;;;;;-1.25;100.00;98744.47;2024645;29;20310;-74
2021/01/02 00:59:52;;;;;;;147.88;48.10;;;;;;;-1.28;100.00;98738.91;2018729;29;20243;-75
2021/01/02 01:01:00;;;;;;;150.60;47.08;;;;;;;-1.28;100.00;98734.47;2018794;29;20237;-74
2021/01/02 01:02:14;;;;;;;125.75;47.10;;;;;;;-1.15;100.00;98749.94;2018011;29;20233;-75
2021/01/02 01:03:24;;;;;;;155.25;47.15;;;;;;;-1.21;100.00;98740.38;2018178;29;20235;-75
2021/01/02 01:04:46;;;;;;;146.75;46.28;;;;;;;-1.05;100.00;98753.81;2017966;29;20237;-75
2021/01/02 01:05:48;;;;;;;133.57;44.40;;;;;;;-1.00;100.00;98756.53;2019548;29;20232;-75
2021/01/02 01:06:52;;;;;;;131.95;44.33;;;;;;;-1.00;100.00;98761.78;2017181;29;20236;-75
2021/01/02 01:07:54;;;;;;;133.43;44.53;;;;;;;-1.01;100.00;98766.22;2024273;29;20640;-76
2021/01/02 01:09:03;;;;;;;123.50;43.53;;;;;;;-1.00;100.00;98769.63;2024905;29;20228;-75
2021/01/02 01:10:10;;;;;;;130.05;42.88;;;;;;;-1.04;100.00;98763.25;2024373;29;20652;-76
2021/01/02 01:11:14;;;;;;;174.88;47.33;;;;;;;-1.16;100.00;98758.81;2017318;29;20239;-75
2021/01/02 01:12:17;;;;;;;172.27;46.03;;;;;;;-1.19;100.00;98759.28;2024888;29;20643;-76
2021/01/02 01:13:20;;;;;;;183.20;47.78;;;;;;;-1.23;100.00;98755.50;2025374;29;20684;-77
2021/01/02 01:14:24;;;;;;;203.32;46.72;;;;;;;-1.26;100.00;98753.34;2025418;29;20220;-76
2021/01/02 01:15:26;;;;;;;138.20;42.88;;;;;;;-1.15;100.00;98755.16;2025136;29;20710;-76
2021/01/02 01:16:28;;;;;;;167.95;45.20;;;;;;;-1.03;100.00;98757.00;2024612;29;20319;-76
2021/01/02 01:17:33;;;;;;;161.68;43.67;;;;;;;-1.00;100.00;98761.78;2024697;29;20312;-76
2021/01/02 01:18:43;;;;;;;152.82;43.40;;;;;;;-1.05;100.00;98751.97;2024867;29;20231;-76
2021/01/02 01:19:45;;;;;;;138.40;42.92;;;;;;;-1.06;100.00;98757.44;2024324;29;20663;-76
2021/01/02 01:20:47;;;;;;;165.57;44.13;;;;;;;-1.08;100.00;98754.25;2016928;29;20257;-76
2021/01/02 01:21:51;;;;;;;155.95;45.08;;;;;;;-1.12;100.00;98753.13;2017155;29;20573;-76
2021/01/02 01:23:12;;;;;;;144.50;43.17;;;;;;;-1.19;100.00;98754.03;2024445;29;20613;-76
2021/01/02 01:24:16;;;;;;;147.73;45.03;;;;;;;-1.19;100.00;98748.00;2024300;29;20234;-76
2021/01/02 01:25:32;;;;;;;149.63;41.88;;;;;;;-1.26;100.00;98742.88;2024842;29;20275;-76
2021/01/02 01:27:05;;;;;;;256.80;44.88;;;;;;;-1.35;100.00;98741.63;2032441;29;20257;-76
2021/01/02 01:28:10;;;;;;;115.68;40.00;;;;;;;-1.43;100.00;98734.91;2024301;29;20292;-77
2021/01/02 01:29:17;;;;;;;132.38;41.17;;;;;;;-1.39;100.00;98743.13;2016993;29;20312;-76
2021/01/02 01:30:20;;;;;;;226.45;46.15;;;;;;;-1.49;100.00;98737.63;2017652;29;20288;-75
2021/01/02 01:31:22;;;;;;;256.20;43.95;;;;;;;-1.53;100.00;98731.25;2016718;29;20232;-76
2021/01/02 01:32:26;;;;;;;319.63;46.65;;;;;;;-1.49;100.00;98742.84;2024143;29;20228;-75
2021/01/02 01:33:29;;;;;;;314.92;47.22;;;;;;;-1.52;100.00;98744.09;2025298;29;20240;-75
2021/01/02 01:34:32;;;;;;;175.07;43.70;;;;;;;-1.54;100.00;98750.59;2025200;29;20327;-75
2021/01/02 01:35:37;;;;;;;229.57;44.65;;;;;;;-1.55;100.00;98749.00;2032342;29;20416;-76
2021/01/02 01:36:42;;;;;;;197.80;44.03;;;;;;;-1.63;100.00;98739.66;2031579;29;20236;-75
2021/01/02 01:37:43;;;;;;;229.55;50.20;;;;;;;-1.57;100.00;98743.97;2024776;29;20228;-75
2021/01/02 01:38:44;;;;;;;196.52;45.63;;;;;;;-1.64;100.00;98732.84;2024722;29;20235;-75
2021/01/02 01:39:50;;;;;;;258.15;50.10;;;;;;;-1.57;100.00;98735.31;2025223;29;20301;-75
2021/01/02 01:40:56;;;;;;;210.32;45.55;;;;;;;-1.57;100.00;98733.50;2025366;29;20228;-74
2021/01/02 01:41:59;;;;;;;208.23;44.97;;;;;;;-1.44;100.00;98741.16;2024641;29;20288;-74
2021/01/02 01:43:03;;;;;;;192.98;45.13;;;;;;;-1.43;100.00;98736.72;2025305;29;20231;-74
2021/01/02 01:44:30;;;;;;;229.57;46.63;;;;;;;-1.50;100.00;98741.25;2025355;29;20227;-75
2021/01/02 01:46:10;;;;;;;182.40;45.17;;;;;;;-1.48;100.00;98728.75;2024704;29;20693;-76
2021/01/02 01:47:13;;;;;;;236.13;47.38;;;;;;;-1.53;100.00;98732.06;2015292;29;20678;-76
2021/01/02 01:48:24;;;;;;;218.75;44.65;;;;;;;-1.59;100.00;98732.94;2017186;29;20237;-76
2021/01/02 01:49:59;;;;;;;152.93;43.60;;;;;;;-1.74;100.00;98720.31;2017587;29;20689;-76
2021/01/02 01:51:09;;;;;;;177.65;43.08;;;;;;;-1.74;100.00;98736.00;2024368;29;20225;-75
2021/01/02 01:52:13;;;;;;;276.05;45.97;;;;;;;-1.83;100.00;98731.28;2024769;29;20240;-76
2021/01/02 01:53:38;;;;;;;262.42;45.67;;;;;;;-1.86;100.00;98742.22;2024274;29;20228;-76
2021/01/02 01:55:05;;;;;;;189.75;46.95;;;;;;;-1.83;100.00;98753.00;2024093;29;20252;-75
2021/01/02 01:56:15;;;;;;;141.38;40.85;;;;;;;-1.71;100.00;98766.91;2015509;29;20315;-76
2021/01/02 01:57:22;;;;;;;161.38;41.50;;;;;;;-1.61;100.00;98760.34;2025030;29;20259;-75
2021/01/02 01:58:38;;;;;;;204.77;44.92;;;;;;;-1.62;100.00;98758.75;2024845;29;20686;-75
2021/01/02 02:00:04;;;;;;;184.30;41.60;;;;;;;-1.52;100.00;98757.19;2024723;29;20220;-76
2021/01/02 02:01:06;;;;;;;193.68;42.33;;;;;;;-1.55;100.00;98760.25;2024847;29;20235;-76
2021/01/02 02:02:14;;;;;;;153.43;41.80;;;;;;;-1.57;100.00;98753.63;2024140;29;20613;-75
2021/01/02 02:03:22;;;;;;;190.93;43.53;;;;;;;-1.60;100.00;98756.72;2024362;29;20289;-75
2021/01/02 02:05:03;;;;;;;201.18;42.90;;;;;;;-1.69;100.00;98742.38;2024280;29;20690;-75
2021/01/02 02:06:13;;;;;;;252.02;44.45;;;;;;;-1.73;100.00;98739.41;2023915;29;20227;-76
2021/01/02 02:07:15;;;;;;;172.55;41.92;;;;;;;-1.72;100.00;98741.00;2024178;29;20231;-75
2021/01/02 02:08:17;;;;;;;124.32;41.53;;;;;;;-1.74;100.00;98754.31;2024957;29;20277;-76
2021/01/02 02:09:20;;;;;;;160.02;42.35;;;;;;;-1.76;100.00;98745.88;2024356;29;20239;-75
2021/01/02 02:10:27;;;;;;;194.00;43.47;;;;;;;-1.75;100.00;98750.06;2024376;29;20232;-77
2021/01/02 02:11:43;;;;;;;193.73;43.47;;;;;;;-1.71;100.00;98758.28;2023753;29;20227;-76
2021/01/02 02:12:51;;;;;;;144.20;40.85;;;;;;;-1.66;100.00;98747.13;2025788;29;20576;-76
2021/01/02 02:14:00;;;;;;;142.07;42.28;;;;;;;-1.69;100.00;98744.97;2030899;29;20235;-76
2021/01/02 02:15:09;;;;;;;186.00;43.22;;;;;;;-1.68;100.00;98749.19;2024056;29;20797;-76
2021/01/02 02:16:11;;;;;;;122.72;42.67;;;;;;;-1.71;100.00;98745.22;2023833;29;20303;-77
2021/01/02 02:17:17;;;;;;;164.68;42.38;;;;;;;-1.68;100.00;98757.81;2024159;29;20609;-76
2021/01/02 02:18:20;;;;;;;122.65;42.58;;;;;;;-1.69;100.00;98751.00;2024515;29;20231;-76
2021/01/02 02:19:40;;;;;;;155.02;42.30;;;;;;;-1.71;100.00;98743.38;2025166;29;20230;-76
2021/01/02 02:20:46;;;;;;;145.35;41.25;;;;;;;-1.75;100.00;98744.03;2031248;29;20306;-76
2021/01/02 02:21:49;;;;;;;132.98;41.25;;;;;;;-1.65;100.00;98749.56;2024331;29;20224;-76
2021/01/02 02:23:01;;;;;;;158.75;44.72;;;;;;;-1.62;100.00;98746.47;2016817;29;20229;-75
2021/01/02 02:24:03;;;;;;;160.40;43.42;;;;;;;-1.62;100.00;98743.88;2023921;29;20699;-76
2021/01/02 02:25:06;;;;;;;109.82;39.58;;;;;;;-1.58;100.00;98746.81;2031888;29;20255;-75
2021/01/02 02:26:10;;;;;;;154.82;44.55;;;;;;;-1.64;100.00;98730.22;2023316;29;20711;-76
2021/01/02 02:27:12;;;;;;;123.35;42.72;;;;;;;-1.60;100.00;98746.25;2016645;29;20241;-76
2021/01/02 02:29:10;;;;;;;128.90;40.58;;;;;;;-1.61;100.00;98744.66;2024195;29;20251;-76
2021/01/02 02:30:14;;;;;;;150.82;40.78;;;;;;;-1.66;100.00;98757.59;2023734;29;20246;-76
2021/01/02 02:31:16;;;;;;;197.30;43.72;;;;;;;-1.69;100.00;98752.81;2023973;29;20227;-76
2021/01/02 02:32:18;;;;;;;180.38;42.08;;;;;;;-1.64;100.00;98751.16;2024105;29;20244;-76
2021/01/02 02:33:21;;;;;;;215.50;47.85;;;;;;;-1.73;100.00;98736.78;2024404;29;20224;-76
2021/01/02 02:34:24;;;;;;;356.67;48.60;;;;;;;-1.72;100.00;98747.03;2024422;29;20251;-77
2021/01/02 02:35:25;;;;;;;198.38;42.83;;;;;;;-1.86;100.00;98737.78;2024020;29;20251;-76
2021/01/02 02:36:27;;;;;;;313.35;46.53;;;;;;;-1.82;100.00;98749.41;2016363;29;20228;-76
2021/01/02 02:37:29;;;;;;;179.65;44.90;;;;;;;-1.87;100.00;98751.88;2024136;29;20235;-76
2021/01/02 02:38:36;;;;;;;229.85;49.33;;;;;;;-1.91;100.00;98742.88;2024105;29;20228;-75
2021/01/02 02:39:37;;;;;;;273.00;49.60;;;;;;;-1.95;100.00;98746.16;2023588;29;20311;-76
2021/01/02 02:40:38;;;;;;;191.90;46.10;;;;;;;-1.97;100.00;98745.59;2024597;29;20295;-76
2021/01/02 02:41:48;;;;;;;327.40;56.00;;;;;;;-1.97;100.00;98738.53;2024285;29;20321;-76
2021/01/02 02:42:54;;;;;;;238.57;52.55;;;;;;;-2.06;100.00;98726.81;2025490;29;20525;-76
2021/01/02 02:43:57;;;;;;;201.75;52.97;;;;;;;-2.10;100.00;98730.88;2031010;29;20659;-76
2021/01/02 02:44:59;;;;;;;197.93;53.97;;;;;;;-2.09;100.00;98737.69;2031888;29;20227;-76
2021/01/02 02:46:01;;;;;;;169.60;50.53;;;;;;;-2.07;100.00;98739.09;2024164;29;20307;-77
2021/01/02 02:47:02;;;;;;;246.98;52.25;;;;;;;-2.03;100.00;98740.22;2024167;29;20238;-76
2021/01/02 02:48:05;;;;;;;167.43;52.10;;;;;;;-2.03;100.00;98742.03;2024552;29;20698;-76
2021/01/02 02:49:07;;;;;;;156.63;52.47;;;;;;;-2.04;100.00;98741.25;2024814;29;20468;-76
2021/01/02 02:50:18;;;;;;;147.13;49.70;;;;;;;-2.04;100.00;98741.25;2023601;29;20235;-76
2021/01/02 02:51:19;;;;;;;148.75;52.08;;;;;;;-2.03;100.00;98739.41;2024211;29;20232;-75
2021/01/02 02:52:25;;;;;;;131.48;48.15;;;;;;;-2.04;100.00;98737.84;2024777;29;20224;-75
2021/01/02 02:53:26;;;;;;;142.73;47.22;;;;;;;-1.99;100.00;98735.34;2024000;29;20235;-76
2021/01/02 02:54:28;;;;;;;156.70;47.00;;;;;;;-1.99;100.00;98719.69;2024744;29;20243;-76
2021/01/02 02:55:30;;;;;;;142.35;48.55;;;;;;;-1.92;100.00;98741.25;2024133;29;20696;-75
2021/01/02 02:56:30;;;;;;;157.73;49.83;;;;;;;-2.07;100.00;98730.44;2023986;29;20684;-75
2021/01/02 02:57:33;;;;;;;139.80;48.77;;;;;;;-1.91;100.00;98737.66;2024879;29;20242;-76
2021/01/02 02:58:34;;;;;;;147.93;50.40;;;;;;;-1.90;100.00;98736.63;2024032;29;20726;-76
2021/01/02 02:59:35;;;;;;;195.23;52.07;;;;;;;-1.89;100.00;98740.84;2023995;29;20591;-76
2021/01/02 03:00:37;;;;;;;151.17;49.20;;;;;;;-1.97;100.00;98733.31;2016076;29;20224;-75
2021/01/02 03:01:39;;;;;;;148.98;47.80;;;;;;;-1.93;100.00;98741.50;2023493;29;20228;-75
2021/01/02 03:02:40;;;;;;;161.88;49.15;;;;;;;-1.93;100.00;98736.25;2024837;29;20302;-75
2021/01/02 03:03:41;;;;;;;147.63;50.28;;;;;;;-1.94;100.00;98735.47;2031710;29;20402;-76
2021/01/02 03:04:42;;;;;;;161.07;49.30;;;;;;;-1.87;100.00;98749.25;2024012;29;20292;-76
2021/01/02 03:05:43;;;;;;;152.02;52.38;;;;;;;-1.73;100.00;98758.50;2023931;29;20228;-76
2021/01/02 03:06:44;;;;;;;142.65;50.97;;;;;;;-1.73;100.00;98742.81;2023806;29;20235;-76
2021/01/02 03:07:47;;;;;;;144.30;50.37;;;;;;;-1.81;100.00;98744.97;2016196;29;20248;-76
2021/01/02 03:08:52;;;;;;;148.55;50.00;;;;;;;-1.75;100.00;98754.50;2023927;29;20287;-76
2021/01/02 03:09:53;;;;;;;134.45;48.75;;;;;;;-1.82;100.00;98744.16;2023480;29;20232;-76
2021/01/02 03:10:54;;;;;;;142.98;49.53;;;;;;;-1.78;100.00;98755.75;2016134;29;20229;-76
2021/01/02 03:11:55;;;;;;;140.17;48.20;;;;;;;-1.66;100.00;98750.53;2024013;29;20235;-76
2021/01/02 03:12:56;;;;;;;121.25;46.58;;;;;;;-1.65;100.00;98754.78;2024510;29;20561;-76
2021/01/02 03:13:57;;;;;;;134.73;48.70;;;;;;;-1.72;100.00;98741.00;2023721;29;20388;-75
2021/01/02 03:14:58;;;;;;;120.85;43.40;;;;;;;-1.63;100.00;98749.31;2023994;29;20296;-75
2021/01/02 03:15:59;;;;;;;133.77;46.67;;;;;;;-1.74;100.00;98743.84;2023935;29;20329;-76
2021/01/02 03:17:01;;;;;;;128.48;45.92;;;;;;;-1.77;100.00;98752.13;2024167;29;20699;-76
2021/01/02 03:18:02;;;;;;;115.15;46.00;;;;;;;-1.83;100.00;98742.53;2016270;29;20268;-76
2021/01/02 03:19:05;;;;;;;118.03;45.05;;;;;;;-1.83;100.00;98737.31;2024054;29;20227;-76
2021/01/02 03:20:07;;;;;;;110.47;44.90;;;;;;;-1.80;100.00;98752.56;2031479;29;20725;-76
2021/01/02 03:21:08;;;;;;;112.53;44.03;;;;;;;-1.77;100.00;98757.34;2024188;29;20251;-76
2021/01/02 03:22:09;;;;;;;111.63;46.23;;;;;;;-1.75;100.00;98750.06;2024443;29;20240;-76
2021/01/02 03:23:10;;;;;;;107.88;45.50;;;;;;;-1.64;100.00;98745.91;2024760;29;20646;-76
2021/01/02 03:24:11;;;;;;;102.37;42.87;;;;;;;-1.58;100.00;98744.19;2024624;29;20228;-74
2021/01/02 03:25:13;;;;;;;119.20;45.33;;;;;;;-1.56;100.00;98748.19;2023643;29;20718;-75
2021/01/02 03:26:14;;;;;;;108.60;43.13;;;;;;;-1.56;100.00;98745.59;2023973;29;20232;-76
2021/01/02 03:27:15;;;;;;;101.57;43.55;;;;;;;-1.62;100.00;98740.44;2023577;29;20228;-76
2021/01/02 03:28:16;;;;;;;103.73;43.20;;;;;;;-1.64;100.00;98745.91;2023879;29;20227;-75
2021/01/02 03:29:17;;;;;;;112.50;45.15;;;;;;;-1.71;100.00;98746.00;2023696;29;20227;-76
2021/01/02 03:30:19;;;;;;;104.40;42.47;;;;;;;-1.66;100.00;98749.75;2016050;29;20308;-76
2021/01/02 03:31:20;;;;;;;100.90;44.47;;;;;;;-1.68;100.00;98734.28;2024006;29;20687;-76
2021/01/02 03:32:22;;;;;;;110.50;43.25;;;;;;;-1.65;100.00;98738.25;2024671;29;20231;-76
2021/01/02 03:33:25;;;;;;;101.05;42.42;;;;;;;-1.59;100.00;98738.16;2023422;29;20552;-76
2021/01/02 03:34:26;;;;;;;100.90;44.05;;;;;;;-1.71;100.00;98732.13;2023839;29;20292;-76
2021/01/02 03:35:27;;;;;;;104.45;42.35;;;;;;;-1.62;100.00;98749.09;2024556;29;20232;-76
2021/01/02 03:36:28;;;;;;;104.32;42.42;;;;;;;-1.64;100.00;98750.34;2024400;29;20224;-76
2021/01/02 03:37:29;;;;;;;100.97;42.63;;;;;;;-1.56;100.00;98750.81;2024373;29;20252;-76
2021/01/02 03:38:32;;;;;;;95.23;43.07;;;;;;;-1.51;100.00;98743.06;2024520;29;20231;-77
2021/01/02 03:39:33;;;;;;;88.93;39.97;;;;;;;-1.50;100.00;98730.78;2024699;29;20227;-76
2021/01/02 03:40:34;;;;;;;108.27;45.67;;;;;;;-1.52;100.00;98731.03;2023792;29;20228;-76
2021/01/02 03:41:35;;;;;;;99.95;42.00;;;;;;;-1.69;100.00;98718.81;2023830;29;20244;-77
2021/01/02 03:42:37;;;;;;;104.50;40.23;;;;;;;-1.49;100.00;98740.22;2024111;29;20239;-76
2021/01/02 03:43:37;;;;;;;100.88;41.25;;;;;;;-1.46;100.00;98742.41;2023713;29;20238;-76
2021/01/02 03:44:39;;;;;;;95.67;40.20;;;;;;;-1.55;100.00;98739.34;2024540;29;20239;-76
2021/01/02 03:45:39;;;;;;;96.00;40.13;;;;;;;-1.51;100.00;98744.91;2023403;29;20259;-77
2021/01/02 03:46:40;;;;;;;100.50;42.50;;;;;;;-1.58;100.00;98733.72;2017097;29;20240;-76
2021/01/02 03:47:44;;;;;;;100.13;41.03;;;;;;;-1.47;100.00;98753.91;2023817;29;20224;-77
2021/01/02 03:48:46;;;;;;;101.40;40.67;;;;;;;-1.52;100.00;98743.31;2024461;29;20231;-77
2021/01/02 03:49:46;;;;;;;107.93;41.78;;;;;;;-1.56;100.00;98736.94;2023961;29;20224;-76
2021/01/02 03:50:48;;;;;;;102.33;40.87;;;;;;;-1.47;100.00;98735.59;2023737;29;20741;-77
2021/01/02 03:51:48;;;;;;;100.00;40.60;;;;;;;-1.44;100.00;98737.75;2024664;29;20302;-76
2021/01/02 03:52:49;;;;;;;105.73;42.17;;;;;;;-1.42;100.00;98743.53;2024450;29;20228;-76
2021/01/02 03:53:50;;;;;;;104.07;40.60;;;;;;;-1.50;100.00;98741.25;2023699;29;20224;-76
2021/01/02 03:54:51;;;;;;;106.80;40.77;;;;;;;-1.39;100.00;98750.97;2023869;29;20750;-76
2021/01/02 03:55:52;;;;;;;96.28;41.67;;;;;;;-1.44;100.00;98742.97;2024091;29;20235;-76
2021/01/02 03:56:53;;;;;;;108.83;41.27;;;;;;;-1.50;100.00;98746.50;2024376;29;20259;-76
2021/01/02 03:57:54;;;;;;;110.38;40.88;;;;;;;-1.58;100.00;98741.59;2023706;29;20232;-77
2021/01/02 03:58:55;;;;;;;110.37;43.57;;;;;;;-1.61;100.00;98740.22;2015891;29;20261;-76
2021/01/02 03:59:56;;;;;;;114.18;43.97;;;;;;;-1.61;100.00;98744.66;2023771;29;20236;-76
2021/01/02 04:00:57;;;;;;;110.00;43.83;;;;;;;-1.62;100.00;98756.13;2024519;29;20315;-77
2021/01/02 04:01:58;;;;;;;108.45;41.30;;;;;;;-1.62;100.00;98764.78;2023731;29;20224;-77
2021/01/02 04:03:01;;;;;;;105.57;42.67;;;;;;;-1.67;100.00;98753.38;2023716;29;20336;-77
2021/01/02 04:04:01;;;;;;;124.45;43.42;;;;;;;-1.61;100.00;98760.34;2023755;29;20235;-77
2021/01/02 04:05:03;;;;;;;103.23;40.20;;;;;;;-1.58;100.00;98759.88;2023762;29;20319;-76
2021/01/02 04:06:04;;;;;;;109.10;41.25;;;;;;;-1.52;100.00;98753.78;2024412;29;20228;-76
2021/01/02 04:07:05;;;;;;;109.68;43.13;;;;;;;-1.48;100.00;98754.91;2031311;29;20255;-76
2021/01/02 04:08:07;;;;;;;109.88;42.78;;;;;;;-1.50;100.00;98759.56;2023947;29;20239;-77
2021/01/02 04:09:08;;;;;;;107.80;42.95;;;;;;;-1.45;100.00;98757.09;2023209;29;20288;-76
2021/01/02 04:10:09;;;;;;;104.70;40.13;;;;;;;-1.44;100.00;98751.63;2023585;29;20236;-76
2021/01/02 04:11:10;;;;;;;120.00;44.10;;;;;;;-1.49;100.00;98756.72;2015232;29;20240;-77
2021/01/02 04:12:11;;;;;;;101.68;42.78;;;;;;;-1.59;100.00;98747.84;2023691;29;20227;-75
2021/01/02 04:13:13;;;;;;;120.07;43.92;;;;;;;-1.55;100.00;98749.00;2031754;29;20231;-76
2021/01/02 04:14:14;;;;;;;111.18;42.85;;;;;;;-1.75;100.00;98730.97;2023440;29;20239;-75
2021/01/02 04:15:15;;;;;;;110.00;42.47;;;;;;;-1.62;100.00;98756.94;2023550;29;20224;-76
2021/01/02 04:16:16;;;;;;;113.82;43.15;;;;;;;-1.65;100.00;98752.16;2024609;29;20315;-76
2021/01/02 04:17:17;;;;;;;120.20;43.63;;;;;;;-1.80;100.00;98736.09;2024361;29;20228;-76
2021/01/02 04:18:19;;;;;;;108.10;41.47;;;;;;;-1.68;100.00;98749.19;2024427;29;20220;-76
2021/01/02 04:19:20;;;;;;;120.95;44.10;;;;;;;-1.67;100.00;98751.56;2023475;29;20598;-76
2021/01/02 04:20:23;;;;;;;101.70;41.75;;;;;;;-1.60;100.00;98751.47;2023542;29;20250;-76
2021/01/02 04:21:24;;;;;;;103.10;40.70;;;;;;;-1.57;100.00;98743.16;2015307;29;20236;-76
2021/01/02 04:22:25;;;;;;;103.50;41.92;;;;;;;-1.57;100.00;98751.03;2023429;29;20228;-76
2021/01/02 04:23:26;;;;;;;97.17;40.47;;;;;;;-1.57;100.00;98753.63;2024388;29;20232;-75
2021/01/02 04:24:27;;;;;;;101.07;40.90;;;;;;;-1.56;100.00;98742.19;2023424;29;20729;-76
2021/01/02 04:25:28;;;;;;;98.97;41.53;;;;;;;-1.52;100.00;98754.56;2015709;29;20590;-76
2021/01/02 04:26:29;;;;;;;115.43;42.30;;;;;;;-1.59;100.00;98745.22;2015781;29;20237;-76
2021/01/02 04:27:30;;;;;;;109.88;43.80;;;;;;;-1.56;100.00;98731.72;2023519;29;20222;-75
2021/01/02 04:28:31;;;;;;;112.50;43.13;;;;;;;-1.50;100.00;98752.50;2032859;29;20784;-76
2021/01/02 04:29:32;;;;;;;113.53;42.53;;;;;;;-1.58;100.00;98747.59;2025180;29;20573;-75
2021/01/02 04:30:33;;;;;;;122.85;44.40;;;;;;;-1.62;100.00;98743.06;2024954;29;20235;-76
2021/01/02 04:31:36;;;;;;;104.20;43.73;;;;;;;-1.60;100.00;98747.03;2025935;29;20224;-76
2021/01/02 04:32:37;;;;;;;102.85;41.08;;;;;;;-1.60;100.00;98744.44;2024444;29;20629;-76
2021/01/02 04:33:39;;;;;;;107.60;43.23;;;;;;;-1.53;100.00;98752.19;2024872;29;20239;-76
2021/01/02 04:34:39;;;;;;;112.97;40.97;;;;;;;-1.49;100.00;98746.25;2024938;29;20224;-76
2021/01/02 04:35:42;;;;;;;104.83;43.63;;;;;;;-1.42;100.00;98754.00;2024852;29;20235;-76
2021/01/02 04:36:43;;;;;;;99.28;42.38;;;;;;;-1.46;100.00;98747.66;2024907;29;20769;-76
2021/01/02 04:37:44;;;;;;;94.75;41.83;;;;;;;-1.52;100.00;98749.34;2025053;29;20633;-76
2021/01/02 04:38:45;;;;;;;100.90;42.35;;;;;;;-1.52;100.00;98753.78;2025750;29;20235;-76
2021/01/02 04:39:46;;;;;;;90.30;42.67;;;;;;;-1.56;100.00;98747.41;2025661;29;20626;-76
2021/01/02 04:40:47;;;;;;;88.37;42.67;;;;;;;-1.54;100.00;98755.81;2024851;29;20276;-76
2021/01/02 04:41:48;;;;;;;80.93;39.42;;;;;;;-1.62;100.00;98740.44;2024766;29;20284;-75
2021/01/02 04:42:50;;;;;;;86.20;39.97;;;;;;;-1.61;100.00;98747.28;2024714;29;20235;-76
2021/01/02 04:43:52;;;;;;;82.97;40.08;;;;;;;-1.58;100.00;98752.03;2024921;29;20220;-76
2021/01/02 04:44:53;;;;;;;81.20;38.88;;;;;;;-1.58;100.00;98759.88;2025187;29;20251;-75
2021/01/02 04:45:54;;;;;;;88.78;41.17;;;;;;;-1.56;100.00;98750.81;2032523;29;20637;-76
2021/01/02 04:46:56;;;;;;;86.00;40.33;;;;;;;-1.57;100.00;98751.03;2032714;29;20268;-76
2021/01/02 04:48:04;;;;;;;83.82;39.88;;;;;;;-1.49;100.00;98755.94;2025666;29;20603;-76
2021/01/02 04:49:06;;;;;;;82.38;37.78;;;;;;;-1.52;100.00;98753.78;2025512;29;20311;-76
2021/01/02 04:50:08;;;;;;;88.15;38.63;;;;;;;-1.55;100.00;98759.47;2024475;29;20242;-76
2021/01/02 04:51:09;;;;;;;81.97;37.92;;;;;;;-1.60;100.00;98760.13;2024499;29;20291;-76
2021/01/02 04:52:11;;;;;;;84.80;39.50;;;;;;;-1.69;100.00;98748.38;2025663;29;20232;-76
2021/01/02 04:53:13;;;;;;;81.80;39.65;;;;;;;-1.59;100.00;98761.72;2025690;29;20234;-77
2021/01/02 04:54:13;;;;;;;80.93;37.47;;;;;;;-1.59;100.00;98758.31;2024812;29;20238;-77